Time;durP1;ratioP1;P1;durP2;ratioP2;P2;SDS_P1;SDS_P2;PMS_P1;PMS_P2;Temp;Humidity;BMP_temperature;BMP_pressure;BME280_temperature;BME280_humidity;BME280_pressure;Samples;Min_cycle;Max_cycle;Signal;HPM_P1;HPM_P2
2023/06/02 00:01:17;;;;;;;;;;;;;;;-140.72;0.00;52644.50;6218295;23;19918;-74
2023/06/02 00:03:44;;;;;;;;;;;;;;;-140.72;0.00;52545.06;6219026;23;20339;-74
2023/06/02 00:06:09;;;;;;;;;;;;;;;-140.72;0.00;52597.84;6222978;23;19912;-74
2023/06/02 00:08:40;;;;;;;;;;;;;;;-140.72;0.00;52605.94;6223162;23;20087;-73
2023/06/02 00:11:06;;;;;;;;;;;;;;;-140.72;0.00;52634.38;6219711;23;19922;-74
2023/06/02 00:13:31;;;;;;;;;;;;;;;-140.72;0.00;52585.66;6219384;23;19986;-74
2023/06/02 00:15:56;;;;;;;;;;;;;;;-140.72;0.00;52605.94;6219964;23;19915;-74
2023/06/02 00:18:25;;;;;;;;;;;;;;;-140.72;0.00;52632.34;6247088;23;20258;-73
2023/06/02 00:20:50;;;;;;;;;;;;;;;-140.72;0.00;52577.53;6219280;23;19965;-74
2023/06/02 00:23:15;;;;;;;;;;;;;;;-140.72;0.00;52593.78;6246058;23;19969;-74
2023/06/02 00:25:58;;;;;;;;;;;;;;;-140.72;0.00;52614.06;6245852;23;20003;-74
2023/06/02 00:28:23;;;;;;;;;;;;;;;-140.72;0.00;52622.19;6245236;23;19915;-74
2023/06/02 00:30:48;;;;;;;;;;;;;;;-140.72;0.00;52636.38;6245432;23;19942;-74
2023/06/02 00:33:14;;;;;;;;;;;;;;;-140.72;0.00;52587.69;6218307;23;19911;-74
2023/06/02 00:35:58;;;;;;;;;;;;;;;-140.72;0.00;52618.13;6217664;23;20015;-73
2023/06/02 00:38:23;;;;;;;;;;;;;;;-140.72;0.00;52638.41;6245418;22;19990;-74
2023/06/02 00:40:49;;;;;;;;;;;;;;;-140.72;0.00;52640.44;6218313;23;19934;-74
2023/06/02 00:43:14;;;;;;;;;;;;;;;-140.72;0.00;52603.94;6218631;23;20009;-73
2023/06/02 00:45:39;;;;;;;;;;;;;;;-140.72;0.00;52610.00;6218101;23;19918;-74
2023/06/02 00:48:05;;;;;;;;;;;;;;;-140.72;0.00;52636.38;6245221;23;19958;-74
2023/06/02 00:50:31;;;;;;;;;;;;;;;-140.72;0.00;52626.25;6218154;23;20303;-74
2023/06/02 00:52:59;;;;;;;;;;;;;;;-140.72;0.00;52614.06;6245028;23;19912;-74
2023/06/02 00:55:27;;;;;;;;;;;;;;;-140.72;0.00;52642.47;6217772;23;19942;-74
2023/06/02 00:57:53;;;;;;;;;;;;;;;-140.72;0.00;52622.19;6217988;23;19991;-74
2023/06/02 01:00:19;;;;;;;;;;;;;;;-140.72;0.00;52614.06;6217971;23;20343;-74
2023/06/02 01:02:45;;;;;;;;;;;;;;;-140.72;0.00;52614.06;6244599;23;19915;-74
2023/06/02 01:05:12;;;;;;;;;;;;;;;-140.72;0.00;52634.38;6218196;23;19912;-74
2023/06/02 01:07:44;;;;;;;;;;;;;;;-140.72;0.00;52612.03;6225696;23;19919;-74
2023/06/02 01:10:11;;;;;;;;;;;;;;;-140.72;0.00;52624.22;6218797;23;20514;-74
2023/06/02 01:12:36;;;;;;;;;;;;;;;-140.72;0.00;52622.19;6215899;23;19990;-74
2023/06/02 01:15:02;;;;;;;;;;;;;;;-140.72;0.00;52620.16;6218113;23;19919;-74
2023/06/02 01:17:28;;;;;;;;;;;;;;;-140.72;0.00;52595.81;6243779;23;20362;-74
2023/06/02 01:19:53;;;;;;;;;;;;;;;-140.72;0.00;52630.31;6245003;23;20248;-74
2023/06/02 01:22:23;;;;;;;;;;;;;;;-140.72;0.00;52583.63;6218408;23;19959;-73
2023/06/02 01:24:50;;;;;;;;;;;;;;;-140.72;0.00;52587.69;6244104;23;21324;-74
2023/06/02 01:27:16;;;;;;;;;;;;;;;-140.72;0.00;52626.25;6218480;23;19991;-74
2023/06/02 01:29:42;;;;;;;;;;;;;;;-140.72;0.00;52622.19;6246376;23;19912;-73
2023/06/02 01:32:14;;;;;;;;;;;;;;;-140.72;0.00;52622.19;6246012;23;20360;-74
2023/06/02 01:37:31;;;;;;;;;;;;;;;-140.72;0.00;52644.50;6245812;23;19912;-74
2023/06/02 01:40:00;;;;;;;;;;;;;;;-140.72;0.00;52630.31;6245088;22;19912;-74
2023/06/02 01:42:25;;;;;;;;;;;;;;;-140.72;0.00;52616.09;6245508;23;20338;-74
2023/06/02 01:45:04;;;;;;;;;;;;;;;-140.72;0.00;52626.25;6217866;23;19911;-73
2023/06/02 01:47:30;;;;;;;;;;;;;;;-140.72;0.00;52620.16;6245310;23;20035;-73
2023/06/02 01:49:55;;;;;;;;;;;;;;;-140.72;0.00;52624.22;6243803;23;20476;-73
2023/06/02 01:52:20;;;;;;;;;;;;;;;-140.72;0.00;52652.63;6217046;23;19951;-73
2023/06/02 01:54:46;;;;;;;;;;;;;;;-140.72;0.00;52603.94;6216518;23;19919;-74
2023/06/02 01:57:11;;;;;;;;;;;;;;;-140.72;0.00;52610.00;6216531;23;19970;-74
2023/06/02 01:59:36;;;;;;;;;;;;;;;-140.72;0.00;52601.91;6243939;23;20473;-74
2023/06/02 02:02:02;;;;;;;;;;;;;;;-140.72;0.00;52672.91;6217605;23;19919;-73
2023/06/02 02:04:27;;;;;;;;;;;;;;;-140.72;0.00;52646.53;6217847;23;19911;-73
2023/06/02 02:06:52;;;;;;;;;;;;;;;-140.72;0.00;52666.84;6216512;23;20255;-72
2023/06/02 02:09:17;;;;;;;;;;;;;;;-140.72;0.00;52640.44;6217261;23;19991;-74
2023/06/02 02:11:43;;;;;;;;;;;;;;;-140.72;0.00;52660.75;6243560;23;19958;-73
2023/06/02 02:14:08;;;;;;;;;;;;;;;-140.72;0.00;52622.19;6244066;23;19912;-74
2023/06/02 02:16:35;;;;;;;;;;;;;;;-140.72;0.00;52595.81;6217442;23;19949;-74
2023/06/02 02:19:00;;;;;;;;;;;;;;;-140.72;0.00;52624.22;6245001;23;19915;-73
2023/06/02 02:21:28;;;;;;;;;;;;;;;-140.72;0.00;52650.59;6246015;23;19912;-73
2023/06/02 02:23:53;;;;;;;;;;;;;;;-140.72;0.00;52638.41;6219213;23;19915;-73
2023/06/02 02:26:19;;;;;;;;;;;;;;;-140.72;0.00;52644.50;6219798;23;19918;-74
2023/06/02 02:28:45;;;;;;;;;;;;;;;-140.72;0.00;52644.50;6246786;23;19947;-74
2023/06/02 02:31:11;;;;;;;;;;;;;;;-140.72;0.00;52646.53;6246847;23;20184;-74
2023/06/02 02:33:36;;;;;;;;;;;;;;;-140.72;0.00;52654.66;6218960;23;19986;-73
2023/06/02 02:36:03;;;;;;;;;;;;;;;-140.72;0.00;52642.47;6218391;23;19942;-74
2023/06/02 02:38:28;;;;;;;;;;;;;;;-140.72;0.00;52610.00;6219344;23;20379;-73
2023/06/02 02:41:03;;;;;;;;;;;;;;;-140.72;0.00;52632.34;6220047;23;19931;-73
2023/06/02 02:43:29;;;;;;;;;;;;;;;-140.72;0.00;52674.94;6246996;23;19911;-73
2023/06/02 02:45:54;;;;;;;;;;;;;;;-140.72;0.00;52634.38;6219191;23;19992;-74
2023/06/02 02:48:19;;;;;;;;;;;;;;;-140.72;0.00;52632.34;6219509;23;19916;-74
2023/06/02 02:50:44;;;;;;;;;;;;;;;-140.72;0.00;52662.78;6219517;23;19922;-74
2023/06/02 02:53:11;;;;;;;;;;;;;;;-140.72;0.00;52634.38;6220518;23;20032;-74
2023/06/02 02:55:37;;;;;;;;;;;;;;;-140.72;0.00;52642.47;6234938;23;19947;-74
2023/06/02 02:58:02;;;;;;;;;;;;;;;-140.72;0.00;52630.31;6248786;23;19916;-74
2023/06/02 03:00:27;;;;;;;;;;;;;;;-140.72;0.00;52626.25;6246813;23;20332;-74
2023/06/02 03:02:54;;;;;;;;;;;;;;;-140.72;0.00;52642.47;6247188;23;19919;-74
2023/06/02 03:05:20;;;;;;;;;;;;;;;-140.72;0.00;52624.22;6219310;23;19965;-73
2023/06/02 03:07:46;;;;;;;;;;;;;;;-140.72;0.00;52626.25;6219324;23;19986;-73
2023/06/02 03:10:11;;;;;;;;;;;;;;;-140.72;0.00;52616.09;6246531;23;19942;-74
2023/06/02 03:12:36;;;;;;;;;;;;;;;-140.72;0.00;52622.19;6219187;23;19990;-74
2023/06/02 03:15:02;;;;;;;;;;;;;;;-140.72;0.00;52660.75;6219220;23;19946;-74
2023/06/02 03:17:27;;;;;;;;;;;;;;;-140.72;0.00;52636.38;6218860;23;19915;-74
2023/06/02 03:19:54;;;;;;;;;;;;;;;-140.72;0.00;52666.84;6246463;23;19957;-74
2023/06/02 03:22:20;;;;;;;;;;;;;;;-140.72;0.00;52630.31;6246226;23;19912;-74
2023/06/02 03:24:45;;;;;;;;;;;;;;;-140.72;0.00;52642.47;6218700;23;19919;-74
2023/06/02 03:27:13;;;;;;;;;;;;;;;-140.72;0.00;52644.50;6246061;23;20320;-74
2023/06/02 03:29:41;;;;;;;;;;;;;;;-140.72;0.00;52632.34;6218993;23;19912;-74
2023/06/02 03:32:10;;;;;;;;;;;;;;;-140.72;0.00;52630.31;6218764;23;19918;-73
2023/06/02 03:34:36;;;;;;;;;;;;;;;-140.72;0.00;52638.41;6218639;23;19912;-73
2023/06/02 03:37:02;;;;;;;;;;;;;;;-140.72;0.00;52658.72;6246115;23;19912;-74
2023/06/02 03:39:27;;;;;;;;;;;;;;;-140.72;0.00;52676.97;6219367;23;20733;-74
2023/06/02 03:41:52;;;;;;;;;;;;;;;-140.72;0.00;52650.59;6219124;23;20192;-74
2023/06/02 03:44:18;;;;;;;;;;;;;;;-140.72;0.00;52628.28;6246119;23;19946;-74
2023/06/02 03:46:43;;;;;;;;;;;;;;;-140.72;0.00;52646.53;6245755;23;20291;-74
2023/06/02 03:49:08;;;;;;;;;;;;;;;-140.72;0.00;52628.28;6220455;23;19994;-73
2023/06/02 03:51:33;;;;;;;;;;;;;;;-140.72;0.00;52658.72;6246484;23;19911;-74
2023/06/02 03:53:58;;;;;;;;;;;;;;;-140.72;0.00;52654.66;6245991;23;19911;-74
2023/06/02 03:56:25;;;;;;;;;;;;;;;-140.72;0.00;52644.50;6219133;23;19926;-74
2023/06/02 03:58:50;;;;;;;;;;;;;;;-140.72;0.00;52642.47;6219341;23;19911;-74
2023/06/02 04:01:16;;;;;;;;;;;;;;;-140.72;0.00;52652.63;6218771;23;20051;-74
2023/06/02 04:03:41;;;;;;;;;;;;;;;-140.72;0.00;52612.03;6219542;23;19912;-74
2023/06/02 04:06:07;;;;;;;;;;;;;;;-140.72;0.00;52670.88;6246439;23;20347;-74
2023/06/02 04:08:33;;;;;;;;;;;;;;;-140.72;0.00;52652.63;6245731;23;19919;-74
2023/06/02 04:10:58;;;;;;;;;;;;;;;-140.72;0.00;52616.09;6218761;23;19927;-73
2023/06/02 04:13:23;;;;;;;;;;;;;;;-140.72;0.00;52601.91;6218553;23;20044;-74
2023/06/02 04:15:48;;;;;;;;;;;;;;;-140.72;0.00;52644.50;6218387;23;19954;-74
2023/06/02 04:18:14;;;;;;;;;;;;;;;-140.72;0.00;52666.84;6245787;23;19920;-74
2023/06/02 04:20:39;;;;;;;;;;;;;;;-140.72;0.00;52626.25;6218667;23;19911;-73
2023/06/02 04:23:04;;;;;;;;;;;;;;;-140.72;0.00;52666.84;6218967;23;19980;-73
2023/06/02 04:25:29;;;;;;;;;;;;;;;-140.72;0.00;52618.13;6245298;23;19911;-73
2023/06/02 04:27:54;;;;;;;;;;;;;;;-140.72;0.00;52634.38;6245265;23;19922;-73
2023/06/02 04:30:20;;;;;;;;;;;;;;;-140.72;0.00;52650.59;6245293;23;19912;-73
2023/06/02 04:32:45;;;;;;;;;;;;;;;-140.72;0.00;52624.22;6245499;23;19915;-73
2023/06/02 04:35:11;;;;;;;;;;;;;;;-140.72;0.00;52640.44;6247015;23;19912;-75
2023/06/02 04:37:36;;;;;;;;;;;;;;;-140.72;0.00;52646.53;6253645;23;19912;-77
2023/06/02 04:40:01;;;;;;;;;;;;;;;-140.72;0.00;52610.00;6232491;23;19943;-77
2023/06/02 04:42:28;;;;;;;;;;;;;;;-140.72;0.00;52668.84;6231033;23;20045;-73
2023/06/02 04:44:53;;;;;;;;;;;;;;;-140.72;0.00;52636.38;6253266;23;19998;-73
2023/06/02 04:47:19;;;;;;;;;;;;;;;-140.72;0.00;52642.47;6249389;23;20328;-75
2023/06/02 04:52:40;;;;;;;;;;;;;;;-140.72;0.00;52620.16;6246944;23;19983;-75
2023/06/02 04:55:08;;;;;;;;;;;;;;;-140.72;0.00;52636.38;6219108;23;19999;-76
2023/06/02 04:57:36;;;;;;;;;;;;;;;-140.72;0.00;52610.00;6246081;23;19951;-74
2023/06/02 05:00:21;;;;;;;;;;;;;;;-140.72;0.00;52610.00;6245185;23;19912;-74
2023/06/02 05:02:47;;;;;;;;;;;;;;;-140.72;0.00;52650.59;6245506;23;19990;-74
2023/06/02 05:05:12;;;;;;;;;;;;;;;-140.72;0.00;52591.75;6217929;23;19947;-74
2023/06/02 05:07:37;;;;;;;;;;;;;;;-140.72;0.00;52646.53;6245250;23;19955;-74
2023/06/02 05:10:03;;;;;;;;;;;;;;;-140.72;0.00;52612.03;6245570;23;19912;-74
2023/06/02 05:12:29;;;;;;;;;;;;;;;-140.72;0.00;52610.00;6245067;23;20327;-74
2023/06/02 05:14:54;;;;;;;;;;;;;;;-140.72;0.00;52591.75;6219581;23;19919;-74
2023/06/02 05:17:27;;;;;;;;;;;;;;;-140.72;0.00;52614.06;6245180;23;19938;-74
2023/06/02 05:19:57;;;;;;;;;;;;;;;-140.72;0.00;52630.31;6246043;23;19915;-75
2023/06/02 05:22:22;;;;;;;;;;;;;;;-140.72;0.00;52571.47;6219643;23;19916;-74
2023/06/02 05:24:48;;;;;;;;;;;;;;;-140.72;0.00;52628.28;6245301;23;20209;-75
2023/06/02 05:27:13;;;;;;;;;;;;;;;-140.72;0.00;52679.00;6245278;23;19936;-74
2023/06/02 05:29:38;;;;;;;;;;;;;;;-140.72;0.00;52618.13;6245148;23;19927;-74
2023/06/02 05:32:05;;;;;;;;;;;;;;;-140.72;0.00;52679.00;6217980;23;19916;-73
2023/06/02 05:34:33;;;;;;;;;;;;;;;-140.72;0.00;52601.91;6244602;23;19912;-74
2023/06/02 05:37:00;;;;;;;;;;;;;;;-140.72;0.00;52595.81;6217942;23;20334;-75
2023/06/02 05:39:25;;;;;;;;;;;;;;;-140.72;0.00;52593.78;6217804;23;19912;-75
2023/06/02 05:41:50;;;;;;;;;;;;;;;-140.72;0.00;52614.06;6218365;23;19912;-74
2023/06/02 05:44:15;;;;;;;;;;;;;;;-140.72;0.00;52610.00;6218505;23;19965;-74
2023/06/02 05:46:41;;;;;;;;;;;;;;;-140.72;0.00;52632.34;6245637;23;19957;-74
2023/06/02 05:49:06;;;;;;;;;;;;;;;-140.72;0.00;52597.84;6245289;23;20060;-73
2023/06/02 05:51:38;;;;;;;;;;;;;;;-140.72;0.00;52636.38;6245459;23;20076;-74
2023/06/02 05:54:06;;;;;;;;;;;;;;;-140.72;0.00;52616.09;6245163;23;19912;-75
2023/06/02 05:56:31;;;;;;;;;;;;;;;-140.72;0.00;52601.91;6218058;23;19947;-76
2023/06/02 05:59:17;;;;;;;;;;;;;;;-140.72;0.00;52614.06;6218226;23;19919;-74
2023/06/02 06:01:42;;;;;;;;;;;;;;;-140.72;0.00;52603.94;6221511;23;19985;-76
2023/06/02 06:04:07;;;;;;;;;;;;;;;-140.72;0.00;52605.94;6246407;23;19911;-75
2023/06/02 06:06:32;;;;;;;;;;;;;;;-140.72;0.00;52610.00;6219207;23;19922;-77
2023/06/02 06:08:58;;;;;;;;;;;;;;;-140.72;0.00;52634.38;6218940;23;19912;-79
2023/06/02 06:11:24;;;;;;;;;;;;;;;-140.72;0.00;52622.19;6245991;23;20292;-78
2023/06/02 06:13:50;;;;;;;;;;;;;;;-140.72;0.00;52595.81;6220123;23;20291;-78
2023/06/02 06:16:15;;;;;;;;;;;;;;;-140.72;0.00;52581.59;6218831;23;19915;-76
2023/06/02 06:18:40;;;;;;;;;;;;;;;-140.72;0.00;52628.28;6245195;23;19924;-75
2023/06/02 06:21:05;;;;;;;;;;;;;;;-140.72;0.00;52593.78;6245885;23;19990;-76
2023/06/02 06:23:30;;;;;;;;;;;;;;;-140.72;0.00;52595.81;6244938;23;19915;-73
2023/06/02 06:25:56;;;;;;;;;;;;;;;-140.72;0.00;52616.09;6218371;23;19923;-72
2023/06/02 06:28:21;;;;;;;;;;;;;;;-140.72;0.00;52618.13;6218936;23;19938;-73
2023/06/02 06:30:46;;;;;;;;;;;;;;;-140.72;0.00;52569.44;6224252;23;19956;-73
2023/06/02 06:33:12;;;;;;;;;;;;;;;-140.72;0.00;52610.00;6220444;23;19923;-73
2023/06/02 06:35:37;;;;;;;;;;;;;;;-140.72;0.00;52624.22;6218301;23;19918;-73
2023/06/02 06:38:03;;;;;;;;;;;;;;;-140.72;0.00;52575.50;6218396;22;20311;-74
2023/06/02 06:40:28;;;;;;;;;;;;;;;-140.72;0.00;52610.00;6218811;23;19990;-74
2023/06/02 06:42:53;;;;;;;;;;;;;;;-140.72;0.00;52585.66;6218142;23;20314;-73
2023/06/02 06:45:19;;;;;;;;;;;;;;;-140.72;0.00;52563.34;6244648;23;20002;-74
2023/06/02 06:47:44;;;;;;;;;;;;;;;-140.72;0.00;52583.63;6245084;23;19911;-77
2023/06/02 06:50:12;;;;;;;;;;;;;;;-140.72;0.00;52599.88;6217940;23;19919;-73
2023/06/02 06:52:37;;;;;;;;;;;;;;;-140.72;0.00;52612.03;6244539;23;19911;-73
2023/06/02 06:55:02;;;;;;;;;;;;;;;-140.72;0.00;52567.41;6244436;23;19966;-73
2023/06/02 06:57:27;;;;;;;;;;;;;;;-140.72;0.00;52532.91;6217721;23;19998;-73
2023/06/02 06:59:53;;;;;;;;;;;;;;;-140.72;0.00;52534.94;6245276;23;19990;-73
2023/06/02 07:02:18;;;;;;;;;;;;;;;-140.72;0.00;52581.59;6245100;23;19966;-79
2023/06/02 07:04:43;;;;;;;;;;;;;;;-140.72;0.00;52530.88;6218178;23;19918;-76
2023/06/02 07:07:11;;;;;;;;;;;;;;;-140.72;0.00;52559.28;6218405;23;20292;-75
2023/06/02 07:10:08;;;;;;;;;;;;;;;-140.72;0.00;52541.03;6244753;23;20247;-76
2023/06/02 07:12:34;;;;;;;;;;;;;;;-140.72;0.00;52510.59;6246584;23;19911;-75
2023/06/02 07:14:59;;;;;;;;;;;;;;;-140.72;0.00;52534.94;6220203;23;19912;-76
2023/06/02 07:17:24;;;;;;;;;;;;;;;-140.72;0.00;52536.97;6219732;23;19920;-75
2023/06/02 07:19:49;;;;;;;;;;;;;;;-140.72;0.00;52536.97;6246108;23;19912;-75
2023/06/02 07:22:18;;;;;;;;;;;;;;;-140.72;0.00;52559.28;6246464;23;19967;-75
2023/06/02 07:24:57;;;;;;;;;;;;;;;-140.72;0.00;52536.97;6219969;23;19911;-75
2023/06/02 07:27:22;;;;;;;;;;;;;;;-140.72;0.00;52557.25;6220464;23;19923;-78
2023/06/02 07:29:47;;;;;;;;;;;;;;;-140.72;0.00;52528.84;6249206;23;19911;-76
2023/06/02 07:32:18;;;;;;;;;;;;;;;-140.72;0.00;52551.16;6248733;23;19912;-76
2023/06/02 07:34:44;;;;;;;;;;;;;;;-140.72;0.00;52581.59;6253824;23;19911;-78
2023/06/02 07:37:09;;;;;;;;;;;;;;;-140.72;0.00;52561.31;6254349;23;20031;-79
2023/06/02 07:39:35;;;;;;;;;;;;;;;-140.72;0.00;52516.66;6227773;23;19954;-78
2023/06/02 07:42:00;;;;;;;;;;;;;;;-140.72;0.00;52539.00;6229679;23;19987;-78
2023/06/02 07:44:25;;;;;;;;;;;;;;;-140.72;0.00;52561.31;6225634;23;19965;-80
2023/06/02 07:46:50;;;;;;;;;;;;;;;-140.72;0.00;52536.97;6226568;23;19911;-81
2023/06/02 07:49:35;;;;;;;;;;;;;;;-140.72;0.00;52539.00;6225468;23;20303;-82
2023/06/02 07:52:00;;;;;;;;;;;;;;;-140.72;0.00;52510.59;6226250;23;19939;-80
2023/06/02 07:54:26;;;;;;;;;;;;;;;-140.72;0.00;52522.75;6230988;23;19934;-81
2023/06/02 07:56:51;;;;;;;;;;;;;;;-140.72;0.00;52530.88;6255688;23;19931;-79
2023/06/02 07:59:18;;;;;;;;;;;;;;;-140.72;0.00;52488.25;6225683;23;19911;-77
2023/06/02 08:01:43;;;;;;;;;;;;;;;-140.72;0.00;52496.38;6220290;23;19919;-78
2023/06/02 08:04:08;;;;;;;;;;;;;;;-140.72;0.00;52496.38;6220925;23;19918;-78
2023/06/02 08:06:34;;;;;;;;;;;;;;;-140.72;0.00;52492.31;6223113;23;19962;-78
2023/06/02 08:09:00;;;;;;;;;;;;;;;-140.72;0.00;52500.44;6224217;23;20005;-78
2023/06/02 08:11:26;;;;;;;;;;;;;;;-140.72;0.00;52496.38;6250169;23;19939;-78
2023/06/02 08:13:53;;;;;;;;;;;;;;;-140.72;0.00;52472.03;6223188;23;19935;-79
2023/06/02 08:16:19;;;;;;;;;;;;;;;-140.72;0.00;52482.16;6224845;23;19966;-81
2023/06/02 08:18:44;;;;;;;;;;;;;;;-140.72;0.00;52453.75;6243477;22;19998;-78
2023/06/02 08:21:09;;;;;;;;;;;;;;;-140.72;0.00;52488.25;6235060;22;19932;-83
2023/06/02 08:23:34;;;;;;;;;;;;;;;-140.72;0.00;52476.09;6229228;23;19912;-80
2023/06/02 08:26:00;;;;;;;;;;;;;;;-140.72;0.00;52431.44;6228407;23;19938;-81
2023/06/02 08:28:29;;;;;;;;;;;;;;;-140.72;0.00;52474.06;6223779;23;20001;-79
2023/06/02 08:30:58;;;;;;;;;;;;;;;-140.72;0.00;52427.38;6223860;23;19918;-80
2023/06/02 08:33:23;;;;;;;;;;;;;;;-140.72;0.00;52455.78;6221982;23;19916;-77
2023/06/02 08:35:56;;;;;;;;;;;;;;;-140.72;0.00;52435.50;6221754;23;19927;-78
2023/06/02 08:38:21;;;;;;;;;;;;;;;-140.72;0.00;52429.41;6221068;23;19918;-77
2023/06/02 08:40:47;;;;;;;;;;;;;;;-140.72;0.00;52472.03;6249618;23;19911;-77
2023/06/02 08:43:22;;;;;;;;;;;;;;;-140.72;0.00;52447.69;6220155;23;20336;-76
2023/06/02 08:48:55;;;;;;;;;;;;;;;-140.72;0.00;52415.22;6246340;23;19914;-77
2023/06/02 08:51:24;;;;;;;;;;;;;;;-140.72;0.00;52431.44;6220159;23;20025;-76
2023/06/02 08:54:06;;;;;;;;;;;;;;;-140.72;0.00;52447.69;6221525;23;20239;-77
2023/06/02 08:56:31;;;;;;;;;;;;;;;-140.72;0.00;52417.25;6221173;23;19935;-77
2023/06/02 08:58:56;;;;;;;;;;;;;;;-140.72;0.00;52490.28;6222540;23;19918;-77
2023/06/02 09:01:22;;;;;;;;;;;;;;;-140.72;0.00;52449.72;6219467;23;19916;-77
2023/06/02 09:03:48;;;;;;;;;;;;;;;-140.72;0.00;52480.16;6248010;23;19935;-77
2023/06/02 09:06:20;;;;;;;;;;;;;;;-140.72;0.00;52474.06;6219226;23;19934;-78
2023/06/02 09:08:58;;;;;;;;;;;;;;;-140.72;0.00;52419.28;6246283;23;19935;-76
2023/06/02 09:11:25;;;;;;;;;;;;;;;-140.72;0.00;52472.03;6219320;23;20247;-79
2023/06/02 09:13:51;;;;;;;;;;;;;;;-140.72;0.00;52478.13;6251820;23;19912;-77
2023/06/02 09:16:16;;;;;;;;;;;;;;;-140.72;0.00;52474.06;6218888;23;19939;-75
2023/06/02 09:21:51;;;;;;;;;;;;;;;-140.72;0.00;52445.66;6245655;23;19915;-72
2023/06/02 09:24:42;;;;;;;;;;;;;;;-140.72;0.00;52472.03;6245407;23;19947;-72
2023/06/02 09:27:15;;;;;;;;;;;;;;;-140.72;0.00;52506.53;6238803;23;20296;-73
2023/06/02 09:29:41;;;;;;;;;;;;;;;-140.72;0.00;52484.19;6244705;23;19987;-72
2023/06/02 09:32:14;;;;;;;;;;;;;;;-140.72;0.00;52445.66;6244714;23;19986;-73
2023/06/02 09:34:40;;;;;;;;;;;;;;;-140.72;0.00;52459.84;6217667;23;20007;-74
2023/06/02 09:37:09;;;;;;;;;;;;;;;-140.72;0.00;52488.25;6244836;23;19912;-72
2023/06/02 09:39:35;;;;;;;;;;;;;;;-140.72;0.00;52484.19;6244873;22;19930;-72
2023/06/02 09:42:01;;;;;;;;;;;;;;;-140.72;0.00;52465.94;6244713;23;19912;-73
2023/06/02 09:44:27;;;;;;;;;;;;;;;-140.72;0.00;52482.16;6244690;23;19973;-72
2023/06/02 09:46:52;;;;;;;;;;;;;;;-140.72;0.00;52449.72;6218503;23;19915;-72
2023/06/02 09:49:18;;;;;;;;;;;;;;;-140.72;0.00;52486.22;6247485;23;19961;-77
2023/06/02 09:51:43;;;;;;;;;;;;;;;-140.72;0.00;52498.41;6247424;23;19915;-76
2023/06/02 09:54:08;;;;;;;;;;;;;;;-140.72;0.00;52506.53;6219064;23;20386;-75
2023/06/02 09:56:37;;;;;;;;;;;;;;;-140.72;0.00;52496.38;6247831;23;19911;-75
2023/06/02 09:59:05;;;;;;;;;;;;;;;-140.72;0.00;52459.84;6220052;23;19920;-75
2023/06/02 10:01:30;;;;;;;;;;;;;;;-140.72;0.00;52492.31;6220554;23;19911;-75
2023/06/02 10:03:55;;;;;;;;;;;;;;;-140.72;0.00;52480.16;6247566;23;19985;-75
2023/06/02 10:06:33;;;;;;;;;;;;;;;-140.72;0.00;52455.78;6236697;23;19911;-76
2023/06/02 10:09:02;;;;;;;;;;;;;;;-140.72;0.00;52476.09;6237402;23;20247;-79
2023/06/02 10:11:45;;;;;;;;;;;;;;;-140.72;0.00;52465.94;6223629;23;20247;-76
2023/06/02 10:14:38;;;;;;;;;;;;;;;-140.72;0.00;52467.97;6246545;23;20236;-75
2023/06/02 10:17:06;;;;;;;;;;;;;;;-140.72;0.00;52470.00;6248622;23;19927;-75
2023/06/02 10:19:55;;;;;;;;;;;;;;;-140.72;0.00;52453.75;6218791;23;19915;-75
2023/06/02 10:22:31;;;;;;;;;;;;;;;-140.72;0.00;52451.72;6218816;23;19918;-76
2023/06/02 10:25:00;;;;;;;;;;;;;;;-140.72;0.00;52490.28;6248436;23;19952;-78
2023/06/02 10:27:30;;;;;;;;;;;;;;;-140.72;0.00;52447.69;6221831;23;19912;-77
2023/06/02 10:29:55;;;;;;;;;;;;;;;-140.72;0.00;52443.63;6219231;23;20419;-77
2023/06/02 10:32:33;;;;;;;;;;;;;;;-140.72;0.00;52461.88;6218940;23;19912;-77
2023/06/02 10:34:59;;;;;;;;;;;;;;;-140.72;0.00;52447.69;6219920;23;19950;-78
2023/06/02 10:37:26;;;;;;;;;;;;;;;-140.72;0.00;52478.13;6247847;23;19916;-77
2023/06/02 10:40:10;;;;;;;;;;;;;;;-140.72;0.00;52447.69;6249019;22;19916;-77
2023/06/02 10:42:36;;;;;;;;;;;;;;;-140.72;0.00;52435.50;6219748;23;19918;-77
2023/06/02 10:45:17;;;;;;;;;;;;;;;-140.72;0.00;52447.69;6220345;23;19950;-77
2023/06/02 10:47:42;;;;;;;;;;;;;;;-140.72;0.00;52429.41;6223825;23;19923;-79
2023/06/02 10:50:24;;;;;;;;;;;;;;;-140.72;0.00;52463.91;6251004;23;19915;-76
2023/06/02 10:52:59;;;;;;;;;;;;;;;-140.72;0.00;52433.47;6221346;23;19912;-78
2023/06/02 10:55:31;;;;;;;;;;;;;;;-140.72;0.00;52449.72;6229876;23;20005;-77
2023/06/02 10:57:56;;;;;;;;;;;;;;;-140.72;0.00;52431.44;6253837;23;19911;-80
2023/06/02 11:00:35;;;;;;;;;;;;;;;-140.72;0.00;52398.97;6224880;23;19963;-79
2023/06/02 11:03:23;;;;;;;;;;;;;;;-140.72;0.00;52407.09;6225866;23;19915;-80
2023/06/02 11:05:54;;;;;;;;;;;;;;;-140.72;0.00;52388.84;6221919;23;19912;-74
2023/06/02 11:08:21;;;;;;;;;;;;;;;-140.72;0.00;52435.50;6247503;23;19911;-77
2023/06/02 11:10:49;;;;;;;;;;;;;;;-140.72;0.00;52386.81;6219921;23;19958;-76
2023/06/02 11:13:21;;;;;;;;;;;;;;;-140.72;0.00;52411.16;6246686;23;20729;-75
2023/06/02 11:15:56;;;;;;;;;;;;;;;-140.72;0.00;52435.50;6247054;23;19915;-74
2023/06/02 11:18:22;;;;;;;;;;;;;;;-140.72;0.00;52409.13;6219655;23;19943;-76
2023/06/02 11:20:49;;;;;;;;;;;;;;;-140.72;0.00;52370.56;6246773;23;19962;-76
2023/06/02 11:23:14;;;;;;;;;;;;;;;-140.72;0.00;52378.69;6247038;23;19919;-74
2023/06/02 11:25:40;;;;;;;;;;;;;;;-140.72;0.00;52396.94;6247926;23;19916;-74
2023/06/02 11:28:05;;;;;;;;;;;;;;;-140.72;0.00;52388.84;6226772;23;19983;-79
2023/06/02 11:30:30;;;;;;;;;;;;;;;-140.72;0.00;52401.00;6229615;23;19950;-77
2023/06/02 11:32:56;;;;;;;;;;;;;;;-140.72;0.00;52411.16;6220137;23;19911;-80
2023/06/02 11:35:25;;;;;;;;;;;;;;;-140.72;0.00;52390.84;6248097;23;19939;-76
2023/06/02 11:38:02;;;;;;;;;;;;;;;-140.72;0.00;52386.81;6246844;23;19917;-77
2023/06/02 11:40:28;;;;;;;;;;;;;;;-140.72;0.00;52356.38;6219867;23;20315;-77
2023/06/02 11:42:53;;;;;;;;;;;;;;;-140.72;0.00;52297.53;6220289;23;19916;-75
2023/06/02 11:45:20;;;;;;;;;;;;;;;-140.72;0.00;52315.78;6248774;23;20165;-76
2023/06/02 11:47:48;;;;;;;;;;;;;;;-140.72;0.00;52295.50;6221493;23;19923;-79
2023/06/02 11:50:17;;;;;;;;;;;;;;;-140.72;0.00;52204.19;6246569;23;19926;-76
2023/06/02 11:52:43;;;;;;;;;;;;;;;-140.72;0.00;52258.97;6248534;23;20396;-76
2023/06/02 11:55:10;;;;;;;;;;;;;;;-140.72;0.00;52248.81;6228396;23;19899;-78
2023/06/02 11:57:35;;;;;;;;;;;;;;;-140.72;0.00;52226.50;6260820;23;20292;-74
2023/06/02 12:00:09;;;;;;;;;;;;;;;-140.72;0.00;52252.88;6220583;23;19912;-74
2023/06/02 12:02:35;;;;;;;;;;;;;;;-140.72;0.00;52248.81;6246264;23;19918;-75
2023/06/02 12:05:00;;;;;;;;;;;;;;;-140.72;0.00;52192.00;6246243;23;19916;-74
2023/06/02 12:07:29;;;;;;;;;;;;;;;-140.72;0.00;52228.53;6246276;23;19912;-74
2023/06/02 12:09:55;;;;;;;;;;;;;;;-140.72;0.00;52204.19;6245773;23;19957;-74
2023/06/02 12:12:20;;;;;;;;;;;;;;;-140.72;0.00;52273.19;6219117;23;20358;-74
2023/06/02 12:14:45;;;;;;;;;;;;;;;-140.72;0.00;52252.88;6246417;23;19915;-73
2023/06/02 12:17:16;;;;;;;;;;;;;;;-140.72;0.00;52254.91;6246447;23;19915;-73
2023/06/02 12:19:41;;;;;;;;;;;;;;;-140.72;0.00;52236.66;6246710;23;20273;-74
2023/06/02 12:22:15;;;;;;;;;;;;;;;-140.72;0.00;52234.63;6218679;23;19912;-74
2023/06/02 12:24:52;;;;;;;;;;;;;;;-140.72;0.00;52275.19;6218790;23;20008;-73
2023/06/02 12:27:21;;;;;;;;;;;;;;;-140.72;0.00;52224.47;6245786;23;19919;-72
2023/06/02 12:29:46;;;;;;;;;;;;;;;-140.72;0.00;52240.72;6245520;23;19985;-73
2023/06/02 12:32:32;;;;;;;;;;;;;;;-140.72;0.00;52210.28;6219556;23;19919;-77
2023/06/02 12:34:57;;;;;;;;;;;;;;;-140.72;0.00;52169.69;6245344;23;19911;-74
2023/06/02 12:37:23;;;;;;;;;;;;;;;-140.72;0.00;52151.44;6246143;23;19912;-73
2023/06/02 12:39:48;;;;;;;;;;;;;;;-140.72;0.00;52212.31;6245250;22;19935;-73
2023/06/02 12:42:20;;;;;;;;;;;;;;;-140.72;0.00;52220.41;6245014;23;19952;-73
2023/06/02 12:44:46;;;;;;;;;;;;;;;-140.72;0.00;52218.38;6218476;23;20002;-73
2023/06/02 12:47:45;;;;;;;;;;;;;;;-140.72;0.00;52163.59;6218135;23;19938;-73
2023/06/02 12:50:11;;;;;;;;;;;;;;;-140.72;0.00;52281.28;6218426;23;20271;-73